Kaami — C6VO9 — position and weather

sailwx.info

Track history (hours):
 
Tides and Currents Weather Stations Pressure Air Temp Water Temp Dewpoint Dewpoint Depression Visibility Wind Speed Wind Dir Waves Ship Positions

Kaami

Last reported at 2018-Feb-21 16:09 UTC. Time now 2018-Feb-22 09:26 UTC.
Position N 54°44' E 019°37'.

Length 90 m; draft 3.4 m.

Type: Cargo ship. MMSI: 308542000.

Date/timePositionNaut miles runAvg speedWind from/ knotsBaromVisibWave heightAir tempDewpointWater temp
2018-Feb-21 16:09N 54°44' E 019°37'1 9.2
2018-Feb-21 16:00N 54°44' E 019°35'5 9.9
2018-Feb-21 15:30N 54°47' E 019°28'4 8.6
2018-Feb-21 15:00N 54°48' E 019°20'4 7.9
2018-Feb-21 14:30N 54°49' E 019°14'4 8.0
2018-Feb-21 14:00N 54°50' E 019°07'4 8.5
2018-Feb-21 13:30N 54°51' E 018°60'4 8.4
2018-Feb-21 13:00N 54°52' E 018°53'5 9.3
2018-Feb-21 12:30N 54°53' E 018°45'5 9.9
2018-Feb-21 12:00N 54°54' E 018°36'5 9.8
2018-Feb-21 11:30N 54°54' E 018°28'510.1
2018-Feb-21 11:00N 54°54' E 018°19'611.1
2018-Feb-21 10:30N 54°55' E 018°10'18810.6
2018-Feb-20 16:46N 54°40' E 012°45'310.2
2018-Feb-20 16:30N 54°39' E 012°40'1010.1
2018-Feb-20 15:31N 54°34' E 012°26'010.1
2018-Feb-20 15:30N 54°34' E 012°26'14 9.6
2018-Feb-20 14:00N 54°24' E 012°08'5 9.9
2018-Feb-20 13:30N 54°24' E 011°59'510.1
2018-Feb-20 13:00N 54°21' E 011°52'510.5
2018-Feb-20 12:30N 54°18' E 011°45'1210.2
2018-Feb-20 11:20N 54°10' E 011°29'310.5
2018-Feb-20 11:00N 54°07' E 011°27'510.2
2018-Feb-20 10:30N 54°02' E 011°24'4 8.6
2018-Feb-20 10:00N 53°58' E 011°22'5 9.0
2018-Feb-20 09:30N 53°54' E 011°27'0 0.5
2018-Feb-20 09:00N 53°54' E 011°27'0 0.0
2018-Feb-20 08:30N 53°54' E 011°27'0 0.0
2018-Feb-20 08:00N 53°54' E 011°27'0 0.0
2018-Feb-20 07:30N 53°54' E 011°27'0 0.0
2018-Feb-20 07:00N 53°54' E 011°27'0 0.0
2018-Feb-20 06:30N 53°54' E 011°27'0 0.0
2018-Feb-20 06:00N 53°54' E 011°27'0 0.0
2018-Feb-20 05:30N 53°54' E 011°27'0 0.0
2018-Feb-20 05:00N 53°54' E 011°27'0 0.0
2018-Feb-20 04:30N 53°54' E 011°27'0 0.0
2018-Feb-20 04:00N 53°54' E 011°27'0 0.0
2018-Feb-20 03:30N 53°54' E 011°27'0 0.0
2018-Feb-20 03:00N 53°54' E 011°27'0 0.0
2018-Feb-20 02:30N 53°54' E 011°27'0 0.0
2018-Feb-20 02:00N 53°54' E 011°27'0 0.0
2018-Feb-20 01:30N 53°54' E 011°27'0 0.0
2018-Feb-20 01:00N 53°54' E 011°27'0 0.0
2018-Feb-20 00:30N 53°54' E 011°27'0 0.0
2018-Feb-20 00:00N 53°54' E 011°27'0 0.0
2018-Feb-19 23:30N 53°54' E 011°27'0 0.0
2018-Feb-19 23:00N 53°54' E 011°27'0 0.0
2018-Feb-19 22:30N 53°54' E 011°27'0 0.0
2018-Feb-19 22:00N 53°54' E 011°27'0 0.0
2018-Feb-19 21:24N 53°54' E 011°27'0 0.0
2018-Feb-19 21:00N 53°54' E 011°27'0 0.0
2018-Feb-19 20:30N 53°54' E 011°27'0 0.0
2018-Feb-19 20:00N 53°54' E 011°27'0 0.0
2018-Feb-19 19:30N 53°54' E 011°27'0 0.0
2018-Feb-19 19:00N 53°54' E 011°27'0 0.0
2018-Feb-19 18:30N 53°54' E 011°27'0 0.0
2018-Feb-19 18:00N 53°54' E 011°27'0 0.0
2018-Feb-19 17:30N 53°54' E 011°27'0 0.0
2018-Feb-19 17:00N 53°54' E 011°27'0 0.0
2018-Feb-19 16:30N 53°54' E 011°27'0 0.0
2018-Feb-19 16:00N 53°54' E 011°27'0 0.0
2018-Feb-19 15:30N 53°54' E 011°27'0 0.0
2018-Feb-19 15:00N 53°54' E 011°27'0 0.0
2018-Feb-19 14:21N 53°54' E 011°27'0 0.0
2018-Feb-19 14:00N 53°54' E 011°27'0 0.0
2018-Feb-19 13:30N 53°54' E 011°27'0 0.0
2018-Feb-19 13:00N 53°54' E 011°27'0 0.0
2018-Feb-19 12:30N 53°54' E 011°27'0 0.0
2018-Feb-19 11:57N 53°54' E 011°27'0 0.0
2018-Feb-19 11:30N 53°54' E 011°27'0 0.0
2018-Feb-19 11:00N 53°54' E 011°27'0 0.0
2018-Feb-19 10:30N 53°54' E 011°27'0 0.0
2018-Feb-19 10:00N 53°54' E 011°27'0 0.0
2018-Feb-19 09:30N 53°54' E 011°27'0 0.0
2018-Feb-19 08:57N 53°54' E 011°27'0 0.0
2018-Feb-19 08:24N 53°54' E 011°27'0 0.0
2018-Feb-19 08:00N 53°54' E 011°27'0 0.0
2018-Feb-19 07:30N 53°54' E 011°27'0 0.0
2018-Feb-19 07:00N 53°54' E 011°27'0 0.0
2018-Feb-19 06:30N 53°54' E 011°27'0 0.0
2018-Feb-19 06:00N 53°54' E 011°27'0 0.0
2018-Feb-19 05:30N 53°54' E 011°27'0 0.0
2018-Feb-19 05:00N 53°54' E 011°27'0 0.0
2018-Feb-19 04:30N 53°54' E 011°27'0 0.0
2018-Feb-19 04:00N 53°54' E 011°27'0 0.0
2018-Feb-19 03:30N 53°54' E 011°27'0 0.0
2018-Feb-19 03:00N 53°54' E 011°27'0 0.0
2018-Feb-19 02:30N 53°54' E 011°27'0 0.0
2018-Feb-19 02:00N 53°54' E 011°27'1 1.3
2018-Feb-19 01:30N 53°55' E 011°26'4 7.9
2018-Feb-19 01:00N 53°58' E 011°22'3 7.0
2018-Feb-19 00:30N 54°01' E 011°21'5 9.1
2018-Feb-19 00:00N 54°04' E 011°27'4 8.8
2018-Feb-18 23:30N 54°08' E 011°26'4 8.2
2018-Feb-18 22:59N 54°13' E 011°26'7 4.9
2018-Feb-18 21:32N 54°20' E 011°25'0 5.9
2018-Feb-18 21:30N 54°20' E 011°25'3 6.0
2018-Feb-18 21:00N 54°23' E 011°25'4 5.9
2018-Feb-18 20:24N 54°26' E 011°24'3 6.1
2018-Feb-18 19:59N 54°29' E 011°22'3 5.9
2018-Feb-18 19:30N 54°31' E 011°21'3 6.0
2018-Feb-18 19:00N 54°33' E 011°16'3 5.5
2018-Feb-18 18:30N 54°34' E 011°12'3 6.1
2018-Feb-18 18:00N 54°36' E 011°08'3 6.1
2018-Feb-18 17:30N 54°37' E 011°03'3 5.4
2018-Feb-18 17:00N 54°39' E 010°60'3 6.9
2018-Feb-18 16:30N 54°41' E 010°55'3 6.3
2018-Feb-18 16:00N 54°44' E 010°52'3 6.4
2018-Feb-18 15:30N 54°47' E 010°51'3 6.4
2018-Feb-18 15:00N 54°50' E 010°51'3 6.2
2018-Feb-18 14:30N 54°53' E 010°53'3 6.0
2018-Feb-18 14:00N 54°56' E 010°55'3 5.9
2018-Feb-18 13:30N 54°58' E 010°58'3 5.7
2018-Feb-18 13:00N 55°00' E 011°01'3 6.6
2018-Feb-18 12:30N 55°04' E 011°02'3 6.4
2018-Feb-18 12:00N 55°07' E 011°02'3 6.3
2018-Feb-18 11:30N 55°10' E 011°03'3 6.1
2018-Feb-18 11:00N 55°12' E 011°06'3 5.6
2018-Feb-18 10:30N 55°15' E 011°05'3 5.6
2018-Feb-18 10:00N 55°18' E 011°02'3 5.9
2018-Feb-18 09:28N 55°21' E 011°02'131 5.8
2018-Feb-17 10:50N 57°32' E 010°43'2 5.9
2018-Feb-17 10:30N 57°34' E 010°44'3 5.7
2018-Feb-17 10:00N 57°36' E 010°44'3 5.9
2018-Feb-17 09:30N 57°39' E 010°44'3 5.1
2018-Feb-17 09:00N 57°42' E 010°45'3 5.5
2018-Feb-17 08:30N 57°45' E 010°45'3 5.9
2018-Feb-17 08:00N 57°48' E 010°45'3 6.1
2018-Feb-17 07:30N 57°51' E 010°45'3 6.0
2018-Feb-17 07:00N 57°54' E 010°44'3 5.3
2018-Feb-17 06:30N 57°56' E 010°44'3 5.4
2018-Feb-17 06:00N 57°59' E 010°43'3 6.1
2018-Feb-17 05:30N 58°02' E 010°43'3 6.0
2018-Feb-17 05:00N 58°05' E 010°42'3 6.2
2018-Feb-17 04:30N 58°08' E 010°42'3 6.1
2018-Feb-17 04:00N 58°11' E 010°43'3 6.0
2018-Feb-17 03:30N 58°14' E 010°43'3 6.1
2018-Feb-17 03:00N 58°17' E 010°43'17 6.1
2018-Feb-17 00:08N 58°35' E 010°41'1 6.4
2018-Feb-17 00:00N 58°35' E 010°40'3 6.7
2018-Feb-16 23:30N 58°39' E 010°40'3 6.1
2018-Feb-16 23:00N 58°42' E 010°39'3 5.9
2018-Feb-16 22:30N 58°45' E 010°39'3 6.0
2018-Feb-16 22:00N 58°48' E 010°39'3 6.6
2018-Feb-16 21:30N 58°51' E 010°38'3 6.3
2018-Feb-16 21:00N 58°54' E 010°38'3 6.4
2018-Feb-16 20:30N 58°57' E 010°38'3 6.5
2018-Feb-16 20:00N 59°00' E 010°36'3 6.8
2018-Feb-16 19:30N 59°04' E 010°35'4 8.5
2018-Feb-16 19:00N 59°08' E 010°35'510.1
2018-Feb-16 18:30N 59°13' E 010°36'510.5
2018-Feb-16 18:00N 59°18' E 010°34'510.4
2018-Feb-16 17:30N 59°23' E 010°33'510.5
2018-Feb-16 17:00N 59°28' E 010°29'510.1
2018-Feb-16 16:29N 59°33' E 010°24'4 9.2
2018-Feb-16 16:00N 59°37' E 010°25'5 9.7
2018-Feb-16 15:30N 59°42' E 010°21'4 8.0
2018-Feb-16 15:00N 59°44' E 010°15'0 0.7
2018-Feb-16 14:28N 59°45' E 010°15'0 0.0
2018-Feb-16 13:58N 59°45' E 010°15'0 0.0
2018-Feb-16 13:28N 59°45' E 010°15'0 0.0
2018-Feb-16 13:01N 59°45' E 010°15'0 0.0
2018-Feb-16 12:31N 59°45' E 010°15'0 0.0
2018-Feb-16 12:00N 59°45' E 010°15'0 0.0
2018-Feb-16 11:30N 59°45' E 010°15'0 0.0
2018-Feb-16 11:00N 59°45' E 010°15'0 0.0
2018-Feb-16 10:30N 59°45' E 010°15'0 0.0
2018-Feb-16 10:00N 59°45' E 010°15'0 0.0
2018-Feb-16 09:27N 59°45' E 010°15'0 0.0
2018-Feb-16 09:00N 59°45' E 010°15'0 0.0
2018-Feb-16 08:30N 59°45' E 010°15'0 0.0
2018-Feb-16 08:00N 59°45' E 010°15'0 0.0
2018-Feb-16 07:30N 59°45' E 010°15'0 0.0
2018-Feb-16 07:00N 59°45' E 010°15'0 0.0
2018-Feb-16 06:30N 59°45' E 010°15'0 0.0
2018-Feb-16 06:00N 59°45' E 010°15'0 0.0
2018-Feb-16 05:30N 59°45' E 010°15'0 0.0
2018-Feb-16 05:00N 59°45' E 010°15'0 0.0
2018-Feb-16 04:30N 59°45' E 010°15'0 0.0
2018-Feb-16 04:00N 59°45' E 010°15'0 0.0
2018-Feb-16 03:30N 59°45' E 010°15'0 0.0
2018-Feb-16 03:00N 59°45' E 010°15'0 0.0
2018-Feb-16 02:30N 59°45' E 010°15'0 0.0
2018-Feb-16 02:00N 59°45' E 010°15'0 0.0
2018-Feb-16 01:30N 59°45' E 010°15'0 0.0
2018-Feb-16 01:00N 59°45' E 010°15'0 0.0
2018-Feb-16 00:30N 59°45' E 010°15'0 0.0
2018-Feb-16 00:00N 59°45' E 010°15'0 0.0
2018-Feb-15 23:30N 59°45' E 010°15'0 0.0
2018-Feb-15 23:00N 59°45' E 010°15'0 0.0
2018-Feb-15 22:30N 59°45' E 010°15'0 0.0
2018-Feb-15 22:00N 59°45' E 010°15'0 0.0
2018-Feb-15 21:30N 59°45' E 010°15'0 0.0
2018-Feb-15 21:00N 59°45' E 010°15'0 0.0
2018-Feb-15 20:30N 59°45' E 010°15'0 0.0
2018-Feb-15 20:00N 59°45' E 010°15'0 0.0
2018-Feb-15 19:30N 59°45' E 010°15'0 0.0
2018-Feb-15 19:00N 59°45' E 010°15'0 0.0
2018-Feb-15 18:30N 59°45' E 010°15'0 0.0
2018-Feb-15 18:00N 59°45' E 010°15'0 0.0
2018-Feb-15 17:30N 59°45' E 010°15'0 0.0
2018-Feb-15 17:00N 59°45' E 010°15'0 0.0
2018-Feb-15 16:30N 59°45' E 010°15'0 0.0
2018-Feb-15 16:00N 59°45' E 010°15'0 0.0
2018-Feb-15 15:30N 59°45' E 010°15'0 0.0
2018-Feb-15 14:57N 59°45' E 010°15'0 0.0
2018-Feb-15 14:30N 59°45' E 010°15'0 0.0
2018-Feb-15 14:00N 59°45' E 010°15'0 0.0
2018-Feb-15 13:30N 59°45' E 010°15'0 0.0
2018-Feb-15 13:00N 59°45' E 010°15'0 0.0
2018-Feb-15 12:30N 59°45' E 010°15'0 0.0
2018-Feb-15 12:00N 59°45' E 010°15'0 0.0
2018-Feb-15 11:30N 59°45' E 010°15'0 0.0
2018-Feb-15 11:00N 59°45' E 010°15'0 0.0
2018-Feb-15 10:30N 59°45' E 010°15'0 0.0
2018-Feb-15 10:00N 59°45' E 010°15'0 0.0
2018-Feb-15 09:30N 59°45' E 010°15'0 0.0
2018-Feb-15 09:00N 59°45' E 010°15'0 0.0
2018-Feb-15 08:30N 59°45' E 010°15'0 0.0
2018-Feb-15 08:00N 59°45' E 010°15'0 0.0
2018-Feb-15 07:30N 59°45' E 010°15'0 0.0
2018-Feb-15 07:00N 59°45' E 010°15'0 0.0
2018-Feb-15 06:30N 59°45' E 010°15'0 0.0
2018-Feb-15 06:00N 59°45' E 010°15'0 0.0
2018-Feb-15 05:30N 59°45' E 010°15'0 0.1
2018-Feb-15 04:59N 59°45' E 010°15'5 9.5
2018-Feb-15 04:30N 59°42' E 010°21'5 9.8
2018-Feb-15 04:00N 59°37' E 010°25'510.5
2018-Feb-15 03:30N 59°32' E 010°24'611.9
2018-Feb-15 03:00N 59°27' E 010°31'612.0
2018-Feb-15 02:30N 59°21' E 010°33'612.1
2018-Feb-15 02:00N 59°15' E 010°35'611.9
2018-Feb-15 01:30N 59°09' E 010°37'510.2
2018-Feb-15 01:00N 59°04' E 010°35'3 6.8
2018-Feb-15 00:30N 59°01' E 010°37'3 7.0
2018-Feb-15 00:00N 58°58' E 010°39'3 6.9
2018-Feb-14 23:30N 58°54' E 010°41'4 7.1
2018-Feb-14 23:00N 58°51' E 010°42'3 6.9
2018-Feb-14 22:30N 58°48' E 010°44'4 7.2
2018-Feb-14 22:00N 58°44' E 010°46'4 7.4
2018-Feb-14 21:30N 58°40' E 010°47'4 7.1
2018-Feb-14 21:00N 58°37' E 010°49'3 6.9
2018-Feb-14 20:30N 58°34' E 010°51'4 7.1
2018-Feb-14 20:00N 58°30' E 010°53'4 7.1
2018-Feb-14 19:30N 58°27' E 010°55'3 6.8
2018-Feb-14 19:00N 58°24' E 010°57'4 7.1
2018-Feb-14 18:30N 58°20' E 010°59'4 6.8
2018-Feb-14 17:55N 58°16' E 011°00'3 6.9
2018-Feb-14 17:29N 58°13' E 011°02'3 6.8
2018-Feb-14 17:00N 58°10' E 011°03'4 7.3
2018-Feb-14 16:30N 58°07' E 011°05'4 7.1
2018-Feb-14 16:00N 58°03' E 011°07'4 7.6
2018-Feb-14 15:30N 57°60' E 011°10'4 7.1
2018-Feb-14 15:00N 57°57' E 011°12'3 6.7
2018-Feb-14 14:30N 57°53' E 011°13'3 6.4
2018-Feb-14 14:00N 57°50' E 011°15'3 6.6
2018-Feb-14 13:30N 57°47' E 011°17'4 7.0
2018-Feb-14 13:00N 57°44' E 011°18'4 7.3
2018-Feb-14 12:30N 57°40' E 011°20'4 7.0
2018-Feb-14 12:00N 57°37' E 011°21'3 6.9
2018-Feb-14 11:30N 57°33' E 011°23'3 6.7
2018-Feb-14 11:00N 57°30' E 011°25'3 6.8
2018-Feb-14 10:30N 57°27' E 011°27'3 6.3
2018-Feb-14 10:00N 57°24' E 011°28'3 6.6
2018-Feb-14 09:30N 57°21' E 011°30'3 6.9
2018-Feb-14 09:00N 57°17' E 011°32'4 7.1
2018-Feb-14 08:30N 57°14' E 011°34'4 7.2
2018-Feb-14 08:00N 57°11' E 011°37'4 7.0
2018-Feb-14 07:30N 57°07' E 011°39'3 6.8
2018-Feb-14 07:00N 57°04' E 011°41'3 6.6
2018-Feb-14 06:30N 57°01' E 011°43'5 9.6
2018-Feb-14 05:58N 56°56' E 011°47'3 7.0
2018-Feb-14 05:30N 56°53' E 011°49'44 6.9
2018-Feb-13 23:10N 56°13' E 012°20'1 7.4
2018-Feb-13 22:58N 56°12' E 012°22'3 7.4
2018-Feb-13 22:30N 56°10' E 012°27'4 7.3
2018-Feb-13 22:00N 56°08' E 012°32'3 6.7
2018-Feb-13 21:30N 56°05' E 012°36'4 7.5
2018-Feb-13 21:00N 56°02' E 012°40'4 7.2
2018-Feb-13 20:30N 55°59' E 012°42'1 2.8
2018-Feb-13 20:00N 56°00' E 012°43'0 0.1
2018-Feb-13 19:28N 56°00' E 012°43'0 0.0
2018-Feb-13 18:58N 56°00' E 012°43'0 0.0
2018-Feb-13 18:25N 56°00' E 012°43'0 0.0
2018-Feb-13 17:55N 56°00' E 012°43'0 0.0
2018-Feb-13 17:28N 56°00' E 012°43'0 0.0
2018-Feb-13 16:58N 56°00' E 012°43'0 0.0
2018-Feb-13 16:28N 56°00' E 012°43'0 0.0
2018-Feb-13 15:55N 56°00' E 012°43'0 0.0
2018-Feb-13 15:28N 56°00' E 012°43'0 0.0
2018-Feb-13 14:58N 56°00' E 012°43'0 0.0
2018-Feb-13 14:28N 56°00' E 012°43'0 0.0
2018-Feb-13 13:58N 56°00' E 012°43'0 0.0
2018-Feb-13 13:28N 56°00' E 012°43'0 0.0
2018-Feb-13 12:58N 56°00' E 012°43'0 0.0
2018-Feb-13 12:25N 56°00' E 012°43'0 0.0
2018-Feb-13 11:58N 56°00' E 012°43'0 0.0
2018-Feb-13 11:28N 56°00' E 012°43'0 0.0
2018-Feb-13 10:58N 56°00' E 012°43'0 0.0
2018-Feb-13 10:28N 56°00' E 012°43'0 0.0
2018-Feb-13 09:58N 56°00' E 012°43'0 0.0
2018-Feb-13 09:28N 56°00' E 012°43'0 0.0
2018-Feb-13 08:58N 56°00' E 012°43'0 0.0
2018-Feb-13 08:28N 56°00' E 012°43'0 0.0
2018-Feb-13 07:55N 56°00' E 012°43'0 0.0
2018-Feb-13 07:28N 56°00' E 012°43'0 0.0
2018-Feb-13 06:58N 56°00' E 012°43'0 0.0
2018-Feb-13 06:28N 56°00' E 012°43'0 0.0
2018-Feb-13 05:58N 56°00' E 012°43'0 0.0
2018-Feb-13 05:28N 56°00' E 012°43'0 0.0
2018-Feb-13 04:58N 56°00' E 012°43'0 0.0
2018-Feb-13 04:22N 56°00' E 012°43'0 0.0
2018-Feb-13 03:58N 56°00' E 012°43'0 0.0
2018-Feb-13 03:28N 56°00' E 012°43'0 0.0
2018-Feb-13 02:58N 56°00' E 012°43'0 0.0
2018-Feb-13 02:25N 56°00' E 012°43'0 0.0
2018-Feb-13 01:58N 56°00' E 012°43'0 0.0
2018-Feb-13 01:28N 56°00' E 012°43'0 0.0
2018-Feb-13 00:58N 56°00' E 012°43'0 0.0
2018-Feb-13 00:25N 56°00' E 012°43'0 0.0
2018-Feb-12 23:58N 56°00' E 012°43'0 0.0
2018-Feb-12 23:28N 56°00' E 012°43'0 0.0
2018-Feb-12 22:58N 56°00' E 012°43'0 0.0
2018-Feb-12 22:28N 56°00' E 012°43'0 0.0
2018-Feb-12 21:58N 56°00' E 012°43'0 0.0
2018-Feb-12 21:28N 56°00' E 012°43'0 0.0
2018-Feb-12 20:55N 56°00' E 012°43'0 0.0
2018-Feb-12 20:28N 56°00' E 012°43'0 0.0
2018-Feb-12 19:58N 56°00' E 012°43'0 0.0
2018-Feb-12 19:22N 56°00' E 012°43'0 0.0
2018-Feb-12 18:58N 56°00' E 012°43'0 0.0
2018-Feb-12 18:25N 56°00' E 012°43'0 0.0
2018-Feb-12 17:58N 56°00' E 012°43'0 0.0
2018-Feb-12 17:28N 56°00' E 012°43'0 0.0
2018-Feb-12 17:01N 56°00' E 012°43'0 0.0
2018-Feb-12 16:31N 56°00' E 012°43'0 0.0
2018-Feb-12 16:00N 56°00' E 012°43'0 0.0
2018-Feb-12 15:15N 56°00' E 012°43'0 0.0
2018-Feb-12 15:00N 56°00' E 012°43'0 0.0
2018-Feb-12 14:30N 56°00' E 012°43'0 0.0
2018-Feb-12 14:00N 56°00' E 012°43'0 0.0
2018-Feb-12 13:30N 56°00' E 012°43'0 0.0
2018-Feb-12 13:00N 56°00' E 012°43'0 0.0
2018-Feb-12 12:30N 56°00' E 012°43'0 0.0
2018-Feb-12 12:00N 56°00' E 012°43'0 0.0
2018-Feb-12 11:30N 56°00' E 012°43'0 0.0
2018-Feb-12 11:00N 56°00' E 012°43'0 0.0
2018-Feb-12 10:30N 56°00' E 012°43'0 0.0
2018-Feb-12 10:00N 56°00' E 012°43'0 0.0
2018-Feb-12 09:30N 56°00' E 012°43'0 0.0
2018-Feb-12 09:00N 56°00' E 012°43'0 0.0
2018-Feb-12 08:30N 56°00' E 012°43'0 0.0
2018-Feb-12 07:57N 56°00' E 012°43'0 0.0
2018-Feb-12 07:30N 56°00' E 012°43'0 0.0
2018-Feb-12 07:00N 56°00' E 012°43'0 0.0
2018-Feb-12 06:27N 56°00' E 012°43'0 0.0
2018-Feb-12 06:00N 56°00' E 012°43'0 0.0
2018-Feb-12 05:30N 56°00' E 012°43'0 0.0
2018-Feb-12 05:00N 56°00' E 012°43'0 0.0
2018-Feb-12 04:30N 56°00' E 012°43'0 0.0
2018-Feb-12 04:00N 56°00' E 012°43'0 0.0
2018-Feb-12 03:30N 56°00' E 012°43'0 0.0
2018-Feb-12 03:00N 56°00' E 012°43'0 0.0
2018-Feb-12 02:30N 56°00' E 012°43'0 0.0
2018-Feb-12 02:00N 56°00' E 012°43'0 0.0
2018-Feb-12 01:27N 56°00' E 012°43'0 0.0
2018-Feb-12 01:00N 56°00' E 012°43'0 0.0
2018-Feb-12 00:24N 56°00' E 012°43'0 0.0
2018-Feb-12 00:00N 56°00' E 012°43'0 0.0
2018-Feb-11 23:30N 56°00' E 012°43'0 0.0
2018-Feb-11 23:00N 56°00' E 012°43'0 0.0
2018-Feb-11 22:30N 56°00' E 012°43'0 0.0
2018-Feb-11 22:00N 56°00' E 012°43'0 0.0
2018-Feb-11 21:30N 56°00' E 012°43'0 0.0
2018-Feb-11 21:00N 56°00' E 012°43'0 0.0
2018-Feb-11 20:30N 56°00' E 012°43'0 0.0
2018-Feb-11 20:00N 56°00' E 012°43'0 0.0
2018-Feb-11 19:30N 56°00' E 012°43'0 0.0
2018-Feb-11 19:00N 56°00' E 012°43'0 0.0
2018-Feb-11 18:30N 56°00' E 012°43'0 0.0
2018-Feb-11 18:00N 56°00' E 012°43'0 0.0
2018-Feb-11 17:30N 56°00' E 012°43'0 0.0
2018-Feb-11 17:00N 56°00' E 012°43'0 0.0
2018-Feb-11 16:30N 56°00' E 012°43'  
Track history (hours):
 
Tides and Currents Weather Stations Pressure Air Temp Water Temp Dewpoint Dewpoint Depression Visibility Wind Speed Wind Dir Waves Ship Positions

Kaami

Last reported at 2018-Feb-21 16:09 UTC. Time now 2018-Feb-22 09:26 UTC.
Position N 54°44' E 019°37'.

Length 90 m; draft 3.4 m.

Type: Cargo ship. MMSI: 308542000.

Date/timePositionNaut miles runAvg speedWind from/ knotsBaromVisibWave heightAir tempDewpointWater temp
2018-Feb-21 16:09N 54°44' E 019°37'1 9.2
2018-Feb-21 16:00N 54°44' E 019°35'5 9.9
2018-Feb-21 15:30N 54°47' E 019°28'4 8.6
2018-Feb-21 15:00N 54°48' E 019°20'4 7.9
2018-Feb-21 14:30N 54°49' E 019°14'4 8.0
2018-Feb-21 14:00N 54°50' E 019°07'4 8.5
2018-Feb-21 13:30N 54°51' E 018°60'4 8.4
2018-Feb-21 13:00N 54°52' E 018°53'5 9.3
2018-Feb-21 12:30N 54°53' E 018°45'5 9.9
2018-Feb-21 12:00N 54°54' E 018°36'5 9.8
2018-Feb-21 11:30N 54°54' E 018°28'510.1
2018-Feb-21 11:00N 54°54' E 018°19'611.1
2018-Feb-21 10:30N 54°55' E 018°10'18810.6
2018-Feb-20 16:46N 54°40' E 012°45'310.2
2018-Feb-20 16:30N 54°39' E 012°40'1010.1
2018-Feb-20 15:31N 54°34' E 012°26'010.1
2018-Feb-20 15:30N 54°34' E 012°26'14 9.6
2018-Feb-20 14:00N 54°24' E 012°08'5 9.9
2018-Feb-20 13:30N 54°24' E 011°59'510.1
2018-Feb-20 13:00N 54°21' E 011°52'510.5
2018-Feb-20 12:30N 54°18' E 011°45'1210.2
2018-Feb-20 11:20N 54°10' E 011°29'310.5
2018-Feb-20 11:00N 54°07' E 011°27'510.2
2018-Feb-20 10:30N 54°02' E 011°24'4 8.6
2018-Feb-20 10:00N 53°58' E 011°22'5 9.0
2018-Feb-20 09:30N 53°54' E 011°27'0 0.5
2018-Feb-20 09:00N 53°54' E 011°27'0 0.0
2018-Feb-20 08:30N 53°54' E 011°27'0 0.0
2018-Feb-20 08:00N 53°54' E 011°27'0 0.0
2018-Feb-20 07:30N 53°54' E 011°27'0 0.0
2018-Feb-20 07:00N 53°54' E 011°27'0 0.0
2018-Feb-20 06:30N 53°54' E 011°27'0 0.0
2018-Feb-20 06:00N 53°54' E 011°27'0 0.0
2018-Feb-20 05:30N 53°54' E 011°27'0 0.0
2018-Feb-20 05:00N 53°54' E 011°27'0 0.0
2018-Feb-20 04:30N 53°54' E 011°27'0 0.0
2018-Feb-20 04:00N 53°54' E 011°27'0 0.0
2018-Feb-20 03:30N 53°54' E 011°27'0 0.0
2018-Feb-20 03:00N 53°54' E 011°27'0 0.0
2018-Feb-20 02:30N 53°54' E 011°27'0 0.0
2018-Feb-20 02:00N 53°54' E 011°27'0 0.0
2018-Feb-20 01:30N 53°54' E 011°27'0 0.0
2018-Feb-20 01:00N 53°54' E 011°27'0 0.0
2018-Feb-20 00:30N 53°54' E 011°27'0 0.0
2018-Feb-20 00:00N 53°54' E 011°27'0 0.0
2018-Feb-19 23:30N 53°54' E 011°27'0 0.0
2018-Feb-19 23:00N 53°54' E 011°27'0 0.0
2018-Feb-19 22:30N 53°54' E 011°27'0 0.0
2018-Feb-19 22:00N 53°54' E 011°27'0 0.0
2018-Feb-19 21:24N 53°54' E 011°27'0 0.0
2018-Feb-19 21:00N 53°54' E 011°27'0 0.0
2018-Feb-19 20:30N 53°54' E 011°27'0 0.0
2018-Feb-19 20:00N 53°54' E 011°27'0 0.0
2018-Feb-19 19:30N 53°54' E 011°27'0 0.0
2018-Feb-19 19:00N 53°54' E 011°27'0 0.0
2018-Feb-19 18:30N 53°54' E 011°27'0 0.0
2018-Feb-19 18:00N 53°54' E 011°27'0 0.0
2018-Feb-19 17:30N 53°54' E 011°27'0 0.0
2018-Feb-19 17:00N 53°54' E 011°27'0 0.0
2018-Feb-19 16:30N 53°54' E 011°27'0 0.0
2018-Feb-19 16:00N 53°54' E 011°27'0 0.0
2018-Feb-19 15:30N 53°54' E 011°27'0 0.0
2018-Feb-19 15:00N 53°54' E 011°27'0 0.0
2018-Feb-19 14:21N 53°54' E 011°27'0 0.0
2018-Feb-19 14:00N 53°54' E 011°27'0 0.0
2018-Feb-19 13:30N 53°54' E 011°27'0 0.0
2018-Feb-19 13:00N 53°54' E 011°27'0 0.0
2018-Feb-19 12:30N 53°54' E 011°27'0 0.0
2018-Feb-19 11:57N 53°54' E 011°27'0 0.0
2018-Feb-19 11:30N 53°54' E 011°27'0 0.0
2018-Feb-19 11:00N 53°54' E 011°27'0 0.0
2018-Feb-19 10:30N 53°54' E 011°27'0 0.0
2018-Feb-19 10:00N 53°54' E 011°27'0 0.0
2018-Feb-19 09:30N 53°54' E 011°27'0 0.0
2018-Feb-19 08:57N 53°54' E 011°27'0 0.0
2018-Feb-19 08:24N 53°54' E 011°27'0 0.0
2018-Feb-19 08:00N 53°54' E 011°27'0 0.0
2018-Feb-19 07:30N 53°54' E 011°27'0 0.0
2018-Feb-19 07:00N 53°54' E 011°27'0 0.0
2018-Feb-19 06:30N 53°54' E 011°27'0 0.0
2018-Feb-19 06:00N 53°54' E 011°27'0 0.0
2018-Feb-19 05:30N 53°54' E 011°27'0 0.0
2018-Feb-19 05:00N 53°54' E 011°27'0 0.0
2018-Feb-19 04:30N 53°54' E 011°27'0 0.0
2018-Feb-19 04:00N 53°54' E 011°27'0 0.0
2018-Feb-19 03:30N 53°54' E 011°27'0 0.0
2018-Feb-19 03:00N 53°54' E 011°27'0 0.0
2018-Feb-19 02:30N 53°54' E 011°27'0 0.0
2018-Feb-19 02:00N 53°54' E 011°27'1 1.3
2018-Feb-19 01:30N 53°55' E 011°26'4 7.9
2018-Feb-19 01:00N 53°58' E 011°22'3 7.0
2018-Feb-19 00:30N 54°01' E 011°21'5 9.1
2018-Feb-19 00:00N 54°04' E 011°27'4 8.8
2018-Feb-18 23:30N 54°08' E 011°26'4 8.2
2018-Feb-18 22:59N 54°13' E 011°26'7 4.9
2018-Feb-18 21:32N 54°20' E 011°25'0 5.9
2018-Feb-18 21:30N 54°20' E 011°25'3 6.0
2018-Feb-18 21:00N 54°23' E 011°25'4 5.9
2018-Feb-18 20:24N 54°26' E 011°24'3 6.1
2018-Feb-18 19:59N 54°29' E 011°22'3 5.9
2018-Feb-18 19:30N 54°31' E 011°21'3 6.0
2018-Feb-18 19:00N 54°33' E 011°16'3 5.5
2018-Feb-18 18:30N 54°34' E 011°12'3 6.1
2018-Feb-18 18:00N 54°36' E 011°08'3 6.1
2018-Feb-18 17:30N 54°37' E 011°03'3 5.4
2018-Feb-18 17:00N 54°39' E 010°60'3 6.9
2018-Feb-18 16:30N 54°41' E 010°55'3 6.3
2018-Feb-18 16:00N 54°44' E 010°52'3 6.4
2018-Feb-18 15:30N 54°47' E 010°51'3 6.4
2018-Feb-18 15:00N 54°50' E 010°51'3 6.2
2018-Feb-18 14:30N 54°53' E 010°53'3 6.0
2018-Feb-18 14:00N 54°56' E 010°55'3 5.9
2018-Feb-18 13:30N 54°58' E 010°58'3 5.7
2018-Feb-18 13:00N 55°00' E 011°01'3 6.6
2018-Feb-18 12:30N 55°04' E 011°02'3 6.4
2018-Feb-18 12:00N 55°07' E 011°02'3 6.3
2018-Feb-18 11:30N 55°10' E 011°03'3 6.1
2018-Feb-18 11:00N 55°12' E 011°06'3 5.6
2018-Feb-18 10:30N 55°15' E 011°05'3 5.6
2018-Feb-18 10:00N 55°18' E 011°02'3 5.9
2018-Feb-18 09:28N 55°21' E 011°02'131 5.8
2018-Feb-17 10:50N 57°32' E 010°43'2 5.9
2018-Feb-17 10:30N 57°34' E 010°44'3 5.7
2018-Feb-17 10:00N 57°36' E 010°44'3 5.9
2018-Feb-17 09:30N 57°39' E 010°44'3 5.1
2018-Feb-17 09:00N 57°42' E 010°45'3 5.5
2018-Feb-17 08:30N 57°45' E 010°45'3 5.9
2018-Feb-17 08:00N 57°48' E 010°45'3 6.1
2018-Feb-17 07:30N 57°51' E 010°45'3 6.0
2018-Feb-17 07:00N 57°54' E 010°44'3 5.3
2018-Feb-17 06:30N 57°56' E 010°44'3 5.4
2018-Feb-17 06:00N 57°59' E 010°43'3 6.1
2018-Feb-17 05:30N 58°02' E 010°43'3 6.0
2018-Feb-17 05:00N 58°05' E 010°42'3 6.2
2018-Feb-17 04:30N 58°08' E 010°42'3 6.1
2018-Feb-17 04:00N 58°11' E 010°43'3 6.0
2018-Feb-17 03:30N 58°14' E 010°43'3 6.1
2018-Feb-17 03:00N 58°17' E 010°43'17 6.1
2018-Feb-17 00:08N 58°35' E 010°41'1 6.4
2018-Feb-17 00:00N 58°35' E 010°40'3 6.7
2018-Feb-16 23:30N 58°39' E 010°40'3 6.1
2018-Feb-16 23:00N 58°42' E 010°39'3 5.9
2018-Feb-16 22:30N 58°45' E 010°39'3 6.0
2018-Feb-16 22:00N 58°48' E 010°39'3 6.6
2018-Feb-16 21:30N 58°51' E 010°38'3 6.3
2018-Feb-16 21:00N 58°54' E 010°38'3 6.4
2018-Feb-16 20:30N 58°57' E 010°38'3 6.5
2018-Feb-16 20:00N 59°00' E 010°36'3 6.8
2018-Feb-16 19:30N 59°04' E 010°35'4 8.5
2018-Feb-16 19:00N 59°08' E 010°35'510.1
2018-Feb-16 18:30N 59°13' E 010°36'510.5
2018-Feb-16 18:00N 59°18' E 010°34'510.4
2018-Feb-16 17:30N 59°23' E 010°33'510.5
2018-Feb-16 17:00N 59°28' E 010°29'510.1
2018-Feb-16 16:29N 59°33' E 010°24'4 9.2
2018-Feb-16 16:00N 59°37' E 010°25'5 9.7
2018-Feb-16 15:30N 59°42' E 010°21'4 8.0
2018-Feb-16 15:00N 59°44' E 010°15'0 0.7
2018-Feb-16 14:28N 59°45' E 010°15'0 0.0
2018-Feb-16 13:58N 59°45' E 010°15'0 0.0
2018-Feb-16 13:28N 59°45' E 010°15'0 0.0
2018-Feb-16 13:01N 59°45' E 010°15'0 0.0
2018-Feb-16 12:31N 59°45' E 010°15'0 0.0
2018-Feb-16 12:00N 59°45' E 010°15'0 0.0
2018-Feb-16 11:30N 59°45' E 010°15'0 0.0
2018-Feb-16 11:00N 59°45' E 010°15'0 0.0
2018-Feb-16 10:30N 59°45' E 010°15'0 0.0
2018-Feb-16 10:00N 59°45' E 010°15'0 0.0
2018-Feb-16 09:27N 59°45' E 010°15'0 0.0
2018-Feb-16 09:00N 59°45' E 010°15'0 0.0
2018-Feb-16 08:30N 59°45' E 010°15'0 0.0
2018-Feb-16 08:00N 59°45' E 010°15'0 0.0
2018-Feb-16 07:30N 59°45' E 010°15'0 0.0
2018-Feb-16 07:00N 59°45' E 010°15'0 0.0
2018-Feb-16 06:30N 59°45' E 010°15'0 0.0
2018-Feb-16 06:00N 59°45' E 010°15'0 0.0
2018-Feb-16 05:30N 59°45' E 010°15'0 0.0
2018-Feb-16 05:00N 59°45' E 010°15'0 0.0
2018-Feb-16 04:30N 59°45' E 010°15'0 0.0
2018-Feb-16 04:00N 59°45' E 010°15'0 0.0
2018-Feb-16 03:30N 59°45' E 010°15'0 0.0
2018-Feb-16 03:00N 59°45' E 010°15'0 0.0
2018-Feb-16 02:30N 59°45' E 010°15'0 0.0
2018-Feb-16 02:00N 59°45' E 010°15'0 0.0
2018-Feb-16 01:30N 59°45' E 010°15'0 0.0
2018-Feb-16 01:00N 59°45' E 010°15'0 0.0
2018-Feb-16 00:30N 59°45' E 010°15'0 0.0
2018-Feb-16 00:00N 59°45' E 010°15'0 0.0
2018-Feb-15 23:30N 59°45' E 010°15'0 0.0
2018-Feb-15 23:00N 59°45' E 010°15'0 0.0
2018-Feb-15 22:30N 59°45' E 010°15'0 0.0
2018-Feb-15 22:00N 59°45' E 010°15'0 0.0
2018-Feb-15 21:30N 59°45' E 010°15'0 0.0
2018-Feb-15 21:00N 59°45' E 010°15'0 0.0
2018-Feb-15 20:30N 59°45' E 010°15'0 0.0
2018-Feb-15 20:00N 59°45' E 010°15'0 0.0
2018-Feb-15 19:30N 59°45' E 010°15'0 0.0
2018-Feb-15 19:00N 59°45' E 010°15'0 0.0
2018-Feb-15 18:30N 59°45' E 010°15'0 0.0
2018-Feb-15 18:00N 59°45' E 010°15'0 0.0
2018-Feb-15 17:30N 59°45' E 010°15'0 0.0
2018-Feb-15 17:00N 59°45' E 010°15'0 0.0
2018-Feb-15 16:30N 59°45' E 010°15'0 0.0
2018-Feb-15 16:00N 59°45' E 010°15'0 0.0
2018-Feb-15 15:30N 59°45' E 010°15'0 0.0
2018-Feb-15 14:57N 59°45' E 010°15'0 0.0
2018-Feb-15 14:30N 59°45' E 010°15'0 0.0
2018-Feb-15 14:00N 59°45' E 010°15'0 0.0
2018-Feb-15 13:30N 59°45' E 010°15'0 0.0
2018-Feb-15 13:00N 59°45' E 010°15'0 0.0
2018-Feb-15 12:30N 59°45' E 010°15'0 0.0
2018-Feb-15 12:00N 59°45' E 010°15'0 0.0
2018-Feb-15 11:30N 59°45' E 010°15'0 0.0
2018-Feb-15 11:00N 59°45' E 010°15'0 0.0
2018-Feb-15 10:30N 59°45' E 010°15'0 0.0
2018-Feb-15 10:00N 59°45' E 010°15'0 0.0
2018-Feb-15 09:30N 59°45' E 010°15'0 0.0
2018-Feb-15 09:00N 59°45' E 010°15'0 0.0
2018-Feb-15 08:30N 59°45' E 010°15'0 0.0
2018-Feb-15 08:00N 59°45' E 010°15'0 0.0
2018-Feb-15 07:30N 59°45' E 010°15'0 0.0
2018-Feb-15 07:00N 59°45' E 010°15'0 0.0
2018-Feb-15 06:30N 59°45' E 010°15'0 0.0
2018-Feb-15 06:00N 59°45' E 010°15'0 0.0
2018-Feb-15 05:30N 59°45' E 010°15'0 0.1
2018-Feb-15 04:59N 59°45' E 010°15'5 9.5
2018-Feb-15 04:30N 59°42' E 010°21'5 9.8
2018-Feb-15 04:00N 59°37' E 010°25'510.5
2018-Feb-15 03:30N 59°32' E 010°24'611.9
2018-Feb-15 03:00N 59°27' E 010°31'612.0
2018-Feb-15 02:30N 59°21' E 010°33'612.1
2018-Feb-15 02:00N 59°15' E 010°35'611.9
2018-Feb-15 01:30N 59°09' E 010°37'510.2
2018-Feb-15 01:00N 59°04' E 010°35'3 6.8
2018-Feb-15 00:30N 59°01' E 010°37'3 7.0
2018-Feb-15 00:00N 58°58' E 010°39'3 6.9
2018-Feb-14 23:30N 58°54' E 010°41'4 7.1
2018-Feb-14 23:00N 58°51' E 010°42'3 6.9
2018-Feb-14 22:30N 58°48' E 010°44'4 7.2
2018-Feb-14 22:00N 58°44' E 010°46'4 7.4
2018-Feb-14 21:30N 58°40' E 010°47'4 7.1
2018-Feb-14 21:00N 58°37' E 010°49'3 6.9
2018-Feb-14 20:30N 58°34' E 010°51'4 7.1
2018-Feb-14 20:00N 58°30' E 010°53'4 7.1
2018-Feb-14 19:30N 58°27' E 010°55'3 6.8
2018-Feb-14 19:00N 58°24' E 010°57'4 7.1
2018-Feb-14 18:30N 58°20' E 010°59'4 6.8
2018-Feb-14 17:55N 58°16' E 011°00'3 6.9
2018-Feb-14 17:29N 58°13' E 011°02'3 6.8
2018-Feb-14 17:00N 58°10' E 011°03'4 7.3
2018-Feb-14 16:30N 58°07' E 011°05'4 7.1
2018-Feb-14 16:00N 58°03' E 011°07'4 7.6
2018-Feb-14 15:30N 57°60' E 011°10'4 7.1
2018-Feb-14 15:00N 57°57' E 011°12'3 6.7
2018-Feb-14 14:30N 57°53' E 011°13'3 6.4
2018-Feb-14 14:00N 57°50' E 011°15'3 6.6
2018-Feb-14 13:30N 57°47' E 011°17'4 7.0
2018-Feb-14 13:00N 57°44' E 011°18'4 7.3
2018-Feb-14 12:30N 57°40' E 011°20'4 7.0
2018-Feb-14 12:00N 57°37' E 011°21'3 6.9
2018-Feb-14 11:30N 57°33' E 011°23'3 6.7
2018-Feb-14 11:00N 57°30' E 011°25'3 6.8
2018-Feb-14 10:30N 57°27' E 011°27'3 6.3
2018-Feb-14 10:00N 57°24' E 011°28'3 6.6
2018-Feb-14 09:30N 57°21' E 011°30'3 6.9
2018-Feb-14 09:00N 57°17' E 011°32'4 7.1
2018-Feb-14 08:30N 57°14' E 011°34'4 7.2
2018-Feb-14 08:00N 57°11' E 011°37'4 7.0
2018-Feb-14 07:30N 57°07' E 011°39'3 6.8
2018-Feb-14 07:00N 57°04' E 011°41'3 6.6
2018-Feb-14 06:30N 57°01' E 011°43'5 9.6
2018-Feb-14 05:58N 56°56' E 011°47'3 7.0
2018-Feb-14 05:30N 56°53' E 011°49'44 6.9
2018-Feb-13 23:10N 56°13' E 012°20'1 7.4
2018-Feb-13 22:58N 56°12' E 012°22'3 7.4
2018-Feb-13 22:30N 56°10' E 012°27'4 7.3
2018-Feb-13 22:00N 56°08' E 012°32'3 6.7
2018-Feb-13 21:30N 56°05' E 012°36'4 7.5
2018-Feb-13 21:00N 56°02' E 012°40'4 7.2
2018-Feb-13 20:30N 55°59' E 012°42'1 2.8
2018-Feb-13 20:00N 56°00' E 012°43'0 0.1
2018-Feb-13 19:28N 56°00' E 012°43'0 0.0
2018-Feb-13 18:58N 56°00' E 012°43'0 0.0
2018-Feb-13 18:25N 56°00' E 012°43'0 0.0
2018-Feb-13 17:55N 56°00' E 012°43'0 0.0
2018-Feb-13 17:28N 56°00' E 012°43'0 0.0
2018-Feb-13 16:58N 56°00' E 012°43'0 0.0
2018-Feb-13 16:28N 56°00' E 012°43'0 0.0
2018-Feb-13 15:55N 56°00' E 012°43'0 0.0
2018-Feb-13 15:28N 56°00' E 012°43'0 0.0
2018-Feb-13 14:58N 56°00' E 012°43'0 0.0
2018-Feb-13 14:28N 56°00' E 012°43'0 0.0
2018-Feb-13 13:58N 56°00' E 012°43'0 0.0
2018-Feb-13 13:28N 56°00' E 012°43'0 0.0
2018-Feb-13 12:58N 56°00' E 012°43'0 0.0
2018-Feb-13 12:25N 56°00' E 012°43'0 0.0
2018-Feb-13 11:58N 56°00' E 012°43'0 0.0
2018-Feb-13 11:28N 56°00' E 012°43'0 0.0
2018-Feb-13 10:58N 56°00' E 012°43'0 0.0
2018-Feb-13 10:28N 56°00' E 012°43'0 0.0
2018-Feb-13 09:58N 56°00' E 012°43'0 0.0
2018-Feb-13 09:28N 56°00' E 012°43'0 0.0
2018-Feb-13 08:58N 56°00' E 012°43'0 0.0
2018-Feb-13 08:28N 56°00' E 012°43'0 0.0
2018-Feb-13 07:55N 56°00' E 012°43'0 0.0
2018-Feb-13 07:28N 56°00' E 012°43'0 0.0
2018-Feb-13 06:58N 56°00' E 012°43'0 0.0
2018-Feb-13 06:28N 56°00' E 012°43'0 0.0
2018-Feb-13 05:58N 56°00' E 012°43'0 0.0
2018-Feb-13 05:28N 56°00' E 012°43'0 0.0
2018-Feb-13 04:58N 56°00' E 012°43'0 0.0
2018-Feb-13 04:22N 56°00' E 012°43'0 0.0
2018-Feb-13 03:58N 56°00' E 012°43'0 0.0
2018-Feb-13 03:28N 56°00' E 012°43'0 0.0
2018-Feb-13 02:58N 56°00' E 012°43'0 0.0
2018-Feb-13 02:25N 56°00' E 012°43'0 0.0
2018-Feb-13 01:58N 56°00' E 012°43'0 0.0
2018-Feb-13 01:28N 56°00' E 012°43'0 0.0
2018-Feb-13 00:58N 56°00' E 012°43'0 0.0
2018-Feb-13 00:25N 56°00' E 012°43'0 0.0
2018-Feb-12 23:58N 56°00' E 012°43'0 0.0
2018-Feb-12 23:28N 56°00' E 012°43'0 0.0
2018-Feb-12 22:58N 56°00' E 012°43'0 0.0
2018-Feb-12 22:28N 56°00' E 012°43'0 0.0
2018-Feb-12 21:58N 56°00' E 012°43'0 0.0
2018-Feb-12 21:28N 56°00' E 012°43'0 0.0
2018-Feb-12 20:55N 56°00' E 012°43'0 0.0
2018-Feb-12 20:28N 56°00' E 012°43'0 0.0
2018-Feb-12 19:58N 56°00' E 012°43'0 0.0
2018-Feb-12 19:22N 56°00' E 012°43'0 0.0
2018-Feb-12 18:58N 56°00' E 012°43'0 0.0
2018-Feb-12 18:25N 56°00' E 012°43'0 0.0
2018-Feb-12 17:58N 56°00' E 012°43'0 0.0
2018-Feb-12 17:28N 56°00' E 012°43'0 0.0
2018-Feb-12 17:01N 56°00' E 012°43'0 0.0
2018-Feb-12 16:31N 56°00' E 012°43'0 0.0
2018-Feb-12 16:00N 56°00' E 012°43'0 0.0
2018-Feb-12 15:15N 56°00' E 012°43'0 0.0
2018-Feb-12 15:00N 56°00' E 012°43'0 0.0
2018-Feb-12 14:30N 56°00' E 012°43'0 0.0
2018-Feb-12 14:00N 56°00' E 012°43'0 0.0
2018-Feb-12 13:30N 56°00' E 012°43'0 0.0
2018-Feb-12 13:00N 56°00' E 012°43'0 0.0
2018-Feb-12 12:30N 56°00' E 012°43'0 0.0
2018-Feb-12 12:00N 56°00' E 012°43'0 0.0
2018-Feb-12 11:30N 56°00' E 012°43'0 0.0
2018-Feb-12 11:00N 56°00' E 012°43'0 0.0
2018-Feb-12 10:30N 56°00' E 012°43'0 0.0
2018-Feb-12 10:00N 56°00' E 012°43'0 0.0
2018-Feb-12 09:30N 56°00' E 012°43'0 0.0
2018-Feb-12 09:00N 56°00' E 012°43'0 0.0
2018-Feb-12 08:30N 56°00' E 012°43'0 0.0
2018-Feb-12 07:57N 56°00' E 012°43'0 0.0
2018-Feb-12 07:30N 56°00' E 012°43'0 0.0
2018-Feb-12 07:00N 56°00' E 012°43'0 0.0
2018-Feb-12 06:27N 56°00' E 012°43'0 0.0
2018-Feb-12 06:00N 56°00' E 012°43'0 0.0
2018-Feb-12 05:30N 56°00' E 012°43'0 0.0
2018-Feb-12 05:00N 56°00' E 012°43'0 0.0
2018-Feb-12 04:30N 56°00' E 012°43'0 0.0
2018-Feb-12 04:00N 56°00' E 012°43'0 0.0
2018-Feb-12 03:30N 56°00' E 012°43'0 0.0
2018-Feb-12 03:00N 56°00' E 012°43'0 0.0
2018-Feb-12 02:30N 56°00' E 012°43'0 0.0
2018-Feb-12 02:00N 56°00' E 012°43'0 0.0
2018-Feb-12 01:27N 56°00' E 012°43'0 0.0
2018-Feb-12 01:00N 56°00' E 012°43'0 0.0
2018-Feb-12 00:24N 56°00' E 012°43'0 0.0
2018-Feb-12 00:00N 56°00' E 012°43'0 0.0
2018-Feb-11 23:30N 56°00' E 012°43'0 0.0
2018-Feb-11 23:00N 56°00' E 012°43'0 0.0
2018-Feb-11 22:30N 56°00' E 012°43'0 0.0
2018-Feb-11 22:00N 56°00' E 012°43'0 0.0
2018-Feb-11 21:30N 56°00' E 012°43'0 0.0
2018-Feb-11 21:00N 56°00' E 012°43'0 0.0
2018-Feb-11 20:30N 56°00' E 012°43'0 0.0
2018-Feb-11 20:00N 56°00' E 012°43'0 0.0
2018-Feb-11 19:30N 56°00' E 012°43'0 0.0
2018-Feb-11 19:00N 56°00' E 012°43'0 0.0
2018-Feb-11 18:30N 56°00' E 012°43'0 0.0
2018-Feb-11 18:00N 56°00' E 012°43'0 0.0
2018-Feb-11 17:30N 56°00' E 012°43'0 0.0
2018-Feb-11 17:00N 56°00' E 012°43'0 0.0
2018-Feb-11 16:30N 56°00' E 012°43'  

Dump ship's entire track history